Decoded Metar for UAKK (KARAGANDA in KAZAKHSTAN) (IATA:N/A) | Meteo·Mobile Aviation Weather
aviador You're here:

UAKK Decoded Metar

KARAGANDA in KAZAKHSTAN
Report Time2019-07-24 04:30:00
UTC Time2019-07-24 05:00:24
Flight Rules vfr VFR
Wind270° at 10 kt
W.Decomp.*RWY 23: 8.5 kt HW 5.3 kt RCW
Visibility9999 m
Phenomena:N/A
Clouds:N/A
Expected CloudBase > 2,800 ft AGL from Temp-Dew spread
CeilingNone
Temp21°C (ISA +9)
Dew Point14°C (64% RH)
AAT18.6°C
QNH1008 hPa
Density Alt3,258 ft
Elevation1,765 ft
Report Wrong Elevation
Raw Report
METAR UAKK 240430Z 27005MPS 230V300 CAVOK 21/14 Q1008 R23/0///70
NOSIG RMK QFE709/0946=

Extra information for UAKK:More info

Metar Taf Metar & Taf Last 4 Metars F.Rules Stats Wind Profile Meteogram Temp Stats Airport Information Weather charts Add Link Nearby VenuesMetar ALERT Operation Metar Decoded Social comments